sensor_id;sensor_type;location;lat;lon;timestamp;pressure;altitude;pressure_sealevel;temperature;humidity
6208;BME280;3137;51.550;7.060;2023-04-24T00:02:12;99548.63;;;10.82;74.16
6208;BME280;3137;51.550;7.060;2023-04-24T00:04:39;99546.38;;;10.77;74.88
6208;BME280;3137;51.550;7.060;2023-04-24T00:07:11;99547.94;;;10.70;74.68
6208;BME280;3137;51.550;7.060;2023-04-24T00:09:39;99539.06;;;10.70;75.12
6208;BME280;3137;51.550;7.060;2023-04-24T00:12:05;99541.72;;;10.70;75.48
6208;BME280;3137;51.550;7.060;2023-04-24T00:14:32;99542.31;;;10.73;74.81
6208;BME280;3137;51.550;7.060;2023-04-24T00:16:58;99542.16;;;10.75;75.31
6208;BME280;3137;51.550;7.060;2023-04-24T00:19:25;99547.25;;;10.78;75.25
6208;BME280;3137;51.550;7.060;2023-04-24T00:21:51;99545.97;;;10.72;75.53
6208;BME280;3137;51.550;7.060;2023-04-24T00:24:18;99547.09;;;10.79;74.25
6208;BME280;3137;51.550;7.060;2023-04-24T00:26:44;99549.50;;;10.73;74.51
6208;BME280;3137;51.550;7.060;2023-04-24T00:29:11;99541.47;;;10.82;74.17
6208;BME280;3137;51.550;7.060;2023-04-24T00:31:37;99553.16;;;10.81;74.31
6208;BME280;3137;51.550;7.060;2023-04-24T00:34:04;99548.50;;;10.74;74.39
6208;BME280;3137;51.550;7.060;2023-04-24T00:36:31;99546.81;;;10.73;74.45
6208;BME280;3137;51.550;7.060;2023-04-24T00:38:58;99544.00;;;10.74;74.11
6208;BME280;3137;51.550;7.060;2023-04-24T00:41:25;99545.69;;;10.75;73.69
6208;BME280;3137;51.550;7.060;2023-04-24T00:43:52;99535.25;;;10.72;72.93
6208;BME280;3137;51.550;7.060;2023-04-24T00:46:19;99545.69;;;10.75;73.07
6208;BME280;3137;51.550;7.060;2023-04-24T00:48:46;99551.06;;;10.85;71.85
6208;BME280;3137;51.550;7.060;2023-04-24T00:51:12;99556.00;;;10.80;72.79
6208;BME280;3137;51.550;7.060;2023-04-24T00:53:39;99550.47;;;10.81;73.30
6208;BME280;3137;51.550;7.060;2023-04-24T00:56:05;99553.88;;;10.83;73.02
6208;BME280;3137;51.550;7.060;2023-04-24T00:58:32;99544.56;;;10.78;72.73
6208;BME280;3137;51.550;7.060;2023-04-24T01:00:59;99552.44;;;10.70;73.08
6208;BME280;3137;51.550;7.060;2023-04-24T01:03:31;99547.25;;;10.68;73.65
6208;BME280;3137;51.550;7.060;2023-04-24T01:06:01;99546.78;;;10.63;73.53
6208;BME280;3137;51.550;7.060;2023-04-24T01:08:28;99560.16;;;10.53;74.03
6208;BME280;3137;51.550;7.060;2023-04-24T01:10:56;99564.13;;;10.49;74.15
6208;BME280;3137;51.550;7.060;2023-04-24T01:13:23;99560.31;;;10.32;75.34
6208;BME280;3137;51.550;7.060;2023-04-24T01:15:50;99545.91;;;10.33;75.27
6208;BME280;3137;51.550;7.060;2023-04-24T01:18:17;99549.59;;;10.32;75.88
6208;BME280;3137;51.550;7.060;2023-04-24T01:20:44;99541.69;;;10.31;75.98
6208;BME280;3137;51.550;7.060;2023-04-24T01:23:11;99545.59;;;10.27;75.96
6208;BME280;3137;51.550;7.060;2023-04-24T01:25:38;99549.25;;;10.26;76.21
6208;BME280;3137;51.550;7.060;2023-04-24T01:28:05;99547.13;;;10.19;75.96
6208;BME280;3137;51.550;7.060;2023-04-24T01:30:31;99548.09;;;10.09;76.60
6208;BME280;3137;51.550;7.060;2023-04-24T01:32:58;99544.56;;;10.08;76.23
6208;BME280;3137;51.550;7.060;2023-04-24T01:35:25;99541.75;;;10.10;76.14
6208;BME280;3137;51.550;7.060;2023-04-24T01:37:52;99554.16;;;10.11;75.79
6208;BME280;3137;51.550;7.060;2023-04-24T01:40:18;99549.22;;;10.06;75.82
6208;BME280;3137;51.550;7.060;2023-04-24T01:42:45;99551.72;;;10.08;75.34
6208;BME280;3137;51.550;7.060;2023-04-24T01:45:11;99555.25;;;9.98;75.93
6208;BME280;3137;51.550;7.060;2023-04-24T01:47:39;99559.44;;;9.91;76.19
6208;BME280;3137;51.550;7.060;2023-04-24T01:50:06;99559.56;;;9.90;75.86
6208;BME280;3137;51.550;7.060;2023-04-24T01:52:33;99558.41;;;9.83;76.03
6208;BME280;3137;51.550;7.060;2023-04-24T01:55:02;99556.84;;;9.80;76.33
6208;BME280;3137;51.550;7.060;2023-04-24T01:57:30;99547.69;;;9.73;76.26
6208;BME280;3137;51.550;7.060;2023-04-24T01:59:57;99557.06;;;9.67;76.80
6208;BME280;3137;51.550;7.060;2023-04-24T02:02:23;99552.16;;;9.63;76.90
6208;BME280;3137;51.550;7.060;2023-04-24T02:04:50;99549.31;;;9.64;77.26
6208;BME280;3137;51.550;7.060;2023-04-24T02:07:17;99555.16;;;9.48;77.80
6208;BME280;3137;51.550;7.060;2023-04-24T02:09:43;99561.34;;;9.49;78.21
6208;BME280;3137;51.550;7.060;2023-04-24T02:12:10;99561.91;;;9.52;78.02
6208;BME280;3137;51.550;7.060;2023-04-24T02:14:36;99567.81;;;9.46;78.25
6208;BME280;3137;51.550;7.060;2023-04-24T02:17:03;99573.59;;;9.51;78.36
6208;BME280;3137;51.550;7.060;2023-04-24T02:19:29;99576.53;;;9.48;78.29
6208;BME280;3137;51.550;7.060;2023-04-24T02:21:56;99568.00;;;9.33;78.46
6208;BME280;3137;51.550;7.060;2023-04-24T02:24:22;99567.75;;;9.36;78.62
6208;BME280;3137;51.550;7.060;2023-04-24T02:26:49;99564.09;;;9.37;78.45
6208;BME280;3137;51.550;7.060;2023-04-24T02:29:15;99575.63;;;9.38;78.34
6208;BME280;3137;51.550;7.060;2023-04-24T02:31:42;99566.50;;;9.41;78.06
6208;BME280;3137;51.550;7.060;2023-04-24T02:34:08;99564.22;;;9.36;78.24
6208;BME280;3137;51.550;7.060;2023-04-24T02:36:35;99561.97;;;9.31;78.76
6208;BME280;3137;51.550;7.060;2023-04-24T02:39:02;99568.97;;;9.32;78.83
6208;BME280;3137;51.550;7.060;2023-04-24T02:41:31;99561.25;;;9.29;78.87
6208;BME280;3137;51.550;7.060;2023-04-24T02:43:59;99568.81;;;9.24;79.18
6208;BME280;3137;51.550;7.060;2023-04-24T02:46:25;99561.41;;;9.16;79.04
6208;BME280;3137;51.550;7.060;2023-04-24T02:48:52;99566.19;;;9.13;79.94
6208;BME280;3137;51.550;7.060;2023-04-24T02:51:18;99570.16;;;9.19;79.19
6208;BME280;3137;51.550;7.060;2023-04-24T02:53:45;99573.94;;;9.16;79.42
6208;BME280;3137;51.550;7.060;2023-04-24T02:56:11;99572.09;;;9.16;79.30
6208;BME280;3137;51.550;7.060;2023-04-24T02:58:40;99577.31;;;9.18;79.55
6208;BME280;3137;51.550;7.060;2023-04-24T03:01:08;99585.59;;;9.15;79.56
6208;BME280;3137;51.550;7.060;2023-04-24T03:03:37;99581.75;;;9.08;79.48
6208;BME280;3137;51.550;7.060;2023-04-24T03:06:04;99583.44;;;9.09;79.67
6208;BME280;3137;51.550;7.060;2023-04-24T03:08:34;99590.22;;;9.13;79.46
6208;BME280;3137;51.550;7.060;2023-04-24T03:11:01;99585.84;;;9.12;80.05
6208;BME280;3137;51.550;7.060;2023-04-24T03:13:27;99584.88;;;9.13;79.67
6208;BME280;3137;51.550;7.060;2023-04-24T03:15:54;99577.53;;;9.05;80.12
6208;BME280;3137;51.550;7.060;2023-04-24T03:18:20;99582.88;;;9.05;79.60
6208;BME280;3137;51.550;7.060;2023-04-24T03:20:49;99585.38;;;9.07;79.19
6208;BME280;3137;51.550;7.060;2023-04-24T03:23:16;99593.56;;;9.05;79.92
6208;BME280;3137;51.550;7.060;2023-04-24T03:25:43;99588.31;;;9.04;79.91
6208;BME280;3137;51.550;7.060;2023-04-24T03:28:11;99597.78;;;9.08;79.68
6208;BME280;3137;51.550;7.060;2023-04-24T03:30:41;99589.88;;;9.06;79.68
6208;BME280;3137;51.550;7.060;2023-04-24T03:33:08;99598.50;;;9.10;79.80
6208;BME280;3137;51.550;7.060;2023-04-24T03:35:41;99593.16;;;9.10;79.80
6208;BME280;3137;51.550;7.060;2023-04-24T03:38:10;99591.09;;;9.02;80.04
6208;BME280;3137;51.550;7.060;2023-04-24T03:40:59;99595.22;;;9.06;80.19
6208;BME280;3137;51.550;7.060;2023-04-24T03:43:35;99587.47;;;9.03;80.54
6208;BME280;3137;51.550;7.060;2023-04-24T03:46:03;99597.91;;;9.06;80.30
6208;BME280;3137;51.550;7.060;2023-04-24T03:48:33;99588.31;;;9.04;80.25
6208;BME280;3137;51.550;7.060;2023-04-24T03:50:59;99588.50;;;9.12;79.97
6208;BME280;3137;51.550;7.060;2023-04-24T03:53:28;99591.06;;;9.13;79.80
6208;BME280;3137;51.550;7.060;2023-04-24T03:55:55;99582.47;;;9.10;79.93
6208;BME280;3137;51.550;7.060;2023-04-24T03:58:22;99592.69;;;9.05;80.42
6208;BME280;3137;51.550;7.060;2023-04-24T04:00:49;99588.50;;;9.12;79.92
6208;BME280;3137;51.550;7.060;2023-04-24T04:03:36;99589.38;;;9.12;80.28
6208;BME280;3137;51.550;7.060;2023-04-24T04:06:03;99585.38;;;9.07;80.11
6208;BME280;3137;51.550;7.060;2023-04-24T04:08:29;99589.50;;;9.11;80.56
6208;BME280;3137;51.550;7.060;2023-04-24T04:10:57;99585.59;;;9.15;80.20
6208;BME280;3137;51.550;7.060;2023-04-24T04:13:23;99589.97;;;9.16;79.65
6208;BME280;3137;51.550;7.060;2023-04-24T04:15:50;99591.44;;;9.09;80.19
6208;BME280;3137;51.550;7.060;2023-04-24T04:18:17;99595.94;;;9.08;79.72
6208;BME280;3137;51.550;7.060;2023-04-24T04:20:44;99595.56;;;9.13;79.73
6208;BME280;3137;51.550;7.060;2023-04-24T04:23:12;99599.91;;;9.14;79.02
6208;BME280;3137;51.550;7.060;2023-04-24T04:25:49;99609.66;;;9.15;79.48
6208;BME280;3137;51.550;7.060;2023-04-24T04:28:17;99606.72;;;9.18;79.33
6208;BME280;3137;51.550;7.060;2023-04-24T04:30:47;99604.31;;;9.15;79.14
6208;BME280;3137;51.550;7.060;2023-04-24T04:33:13;99607.81;;;9.15;79.16
6208;BME280;3137;51.550;7.060;2023-04-24T04:35:40;99606.25;;;9.13;79.03
6208;BME280;3137;51.550;7.060;2023-04-24T04:38:08;99614.72;;;9.18;79.26
6208;BME280;3137;51.550;7.060;2023-04-24T04:40:57;99613.88;;;9.18;79.43
6208;BME280;3137;51.550;7.060;2023-04-24T04:43:28;99614.00;;;9.16;78.85
6208;BME280;3137;51.550;7.060;2023-04-24T04:45:54;99628.19;;;9.16;78.79
6208;BME280;3137;51.550;7.060;2023-04-24T04:48:42;99623.56;;;9.19;78.60
6208;BME280;3137;51.550;7.060;2023-04-24T04:51:09;99622.47;;;9.21;78.55
6208;BME280;3137;51.550;7.060;2023-04-24T04:53:35;99623.19;;;9.23;78.38
6208;BME280;3137;51.550;7.060;2023-04-24T04:56:02;99617.47;;;9.28;77.86
6208;BME280;3137;51.550;7.060;2023-04-24T04:58:35;99613.22;;;9.25;78.39
6208;BME280;3137;51.550;7.060;2023-04-24T05:01:02;99629.25;;;9.25;77.71
6208;BME280;3137;51.550;7.060;2023-04-24T05:03:37;99617.97;;;9.22;78.42
6208;BME280;3137;51.550;7.060;2023-04-24T05:06:07;99618.97;;;9.21;78.42
6208;BME280;3137;51.550;7.060;2023-04-24T05:08:36;99619.69;;;9.23;78.32
6208;BME280;3137;51.550;7.060;2023-04-24T05:11:06;99627.31;;;9.27;78.06
6208;BME280;3137;51.550;7.060;2023-04-24T05:13:32;99620.06;;;9.18;78.25
6208;BME280;3137;51.550;7.060;2023-04-24T05:16:24;99616.09;;;9.12;78.56
6208;BME280;3137;51.550;7.060;2023-04-24T05:18:52;99609.84;;;9.23;78.14
6208;BME280;3137;51.550;7.060;2023-04-24T05:21:25;99614.34;;;9.23;78.13
6208;BME280;3137;51.550;7.060;2023-04-24T05:23:53;99627.69;;;9.23;78.13
6208;BME280;3137;51.550;7.060;2023-04-24T05:26:40;99621.63;;;9.21;77.44
6208;BME280;3137;51.550;7.060;2023-04-24T05:29:07;99615.44;;;9.20;77.76
6208;BME280;3137;51.550;7.060;2023-04-24T05:31:33;99615.28;;;9.22;77.74
6208;BME280;3137;51.550;7.060;2023-04-24T05:34:00;99625.03;;;9.23;77.95
6208;BME280;3137;51.550;7.060;2023-04-24T05:36:27;99633.75;;;9.25;78.14
6208;BME280;3137;51.550;7.060;2023-04-24T05:38:54;99629.06;;;9.17;78.28
6208;BME280;3137;51.550;7.060;2023-04-24T05:41:20;99647.88;;;9.15;79.00
6208;BME280;3137;51.550;7.060;2023-04-24T05:43:47;99644.78;;;8.99;80.02
6208;BME280;3137;51.550;7.060;2023-04-24T05:46:13;99636.44;;;8.92;80.93
6208;BME280;3137;51.550;7.060;2023-04-24T05:48:40;99652.97;;;8.86;81.81
6208;BME280;3137;51.550;7.060;2023-04-24T05:51:06;99652.72;;;8.78;83.16
6208;BME280;3137;51.550;7.060;2023-04-24T05:53:33;99646.56;;;8.66;84.00
6208;BME280;3137;51.550;7.060;2023-04-24T05:55:59;99650.59;;;8.61;84.64
6208;BME280;3137;51.550;7.060;2023-04-24T05:58:26;99639.56;;;8.54;85.34
6208;BME280;3137;51.550;7.060;2023-04-24T06:00:53;99649.19;;;8.45;85.51
6208;BME280;3137;51.550;7.060;2023-04-24T06:03:20;99648.66;;;8.51;86.11
6208;BME280;3137;51.550;7.060;2023-04-24T06:05:49;99640.81;;;8.50;86.47
6208;BME280;3137;51.550;7.060;2023-04-24T06:08:16;99646.00;;;8.51;86.04
6208;BME280;3137;51.550;7.060;2023-04-24T06:10:44;99649.03;;;8.47;85.95
6208;BME280;3137;51.550;7.060;2023-04-24T06:13:11;99647.72;;;8.52;85.99
6208;BME280;3137;51.550;7.060;2023-04-24T06:15:43;99640.19;;;8.46;85.51
6208;BME280;3137;51.550;7.060;2023-04-24T06:18:15;99644.94;;;8.43;85.40
6208;BME280;3137;51.550;7.060;2023-04-24T06:20:42;99638.13;;;8.50;85.46
6208;BME280;3137;51.550;7.060;2023-04-24T06:23:09;99628.53;;;8.47;85.39
6208;BME280;3137;51.550;7.060;2023-04-24T06:25:35;99644.69;;;8.46;84.64
6208;BME280;3137;51.550;7.060;2023-04-24T06:28:02;99645.88;;;8.53;85.02
6208;BME280;3137;51.550;7.060;2023-04-24T06:30:29;99650.00;;;8.57;84.73
6208;BME280;3137;51.550;7.060;2023-04-24T06:32:56;99646.00;;;8.51;86.04
6208;BME280;3137;51.550;7.060;2023-04-24T06:35:36;99641.22;;;8.66;86.50
6208;BME280;3137;51.550;7.060;2023-04-24T06:38:02;99654.56;;;8.66;85.95
6208;BME280;3137;51.550;7.060;2023-04-24T06:40:29;99652.69;;;8.57;86.58
6208;BME280;3137;51.550;7.060;2023-04-24T06:42:55;99645.63;;;8.45;86.89
6208;BME280;3137;51.550;7.060;2023-04-24T06:45:21;99647.22;;;8.47;87.30
6208;BME280;3137;51.550;7.060;2023-04-24T06:47:48;99649.19;;;8.45;88.04
6208;BME280;3137;51.550;7.060;2023-04-24T06:50:14;99637.16;;;8.40;88.47
6208;BME280;3137;51.550;7.060;2023-04-24T06:52:41;99635.34;;;8.40;88.75
6208;BME280;3137;51.550;7.060;2023-04-24T06:55:07;99634.28;;;8.43;87.88
6208;BME280;3137;51.550;7.060;2023-04-24T06:57:34;99637.06;;;8.41;88.67
6208;BME280;3137;51.550;7.060;2023-04-24T07:00:01;99645.06;;;8.41;88.79
6208;BME280;3137;51.550;7.060;2023-04-24T07:02:27;99647.22;;;8.47;88.64
6208;BME280;3137;51.550;7.060;2023-04-24T07:04:54;99637.63;;;8.45;88.62
6208;BME280;3137;51.550;7.060;2023-04-24T07:07:21;99639.09;;;8.49;88.56
6208;BME280;3137;51.550;7.060;2023-04-24T07:09:50;99625.38;;;8.54;88.92
6208;BME280;3137;51.550;7.060;2023-04-24T07:12:17;99629.88;;;8.53;88.10
6208;BME280;3137;51.550;7.060;2023-04-24T07:14:46;99630.00;;;8.51;88.68
6208;BME280;3137;51.550;7.060;2023-04-24T07:17:12;99637.41;;;8.48;88.28
6208;BME280;3137;51.550;7.060;2023-04-24T07:19:39;99633.66;;;8.50;88.29
6208;BME280;3137;51.550;7.060;2023-04-24T07:22:06;99628.31;;;8.50;87.85
6208;BME280;3137;51.550;7.060;2023-04-24T07:24:32;99641.66;;;8.50;87.21
6208;BME280;3137;51.550;7.060;2023-04-24T07:26:59;99641.13;;;8.57;87.62
6208;BME280;3137;51.550;7.060;2023-04-24T07:29:27;99639.44;;;8.56;87.50
6208;BME280;3137;51.550;7.060;2023-04-24T07:31:53;99643.59;;;8.48;87.44
6208;BME280;3137;51.550;7.060;2023-04-24T07:34:20;99644.19;;;8.52;87.18
6208;BME280;3137;51.550;7.060;2023-04-24T07:36:46;99644.91;;;8.54;86.74
6208;BME280;3137;51.550;7.060;2023-04-24T07:39:13;99650.59;;;8.61;86.21
6208;BME280;3137;51.550;7.060;2023-04-24T07:41:39;99648.41;;;8.66;85.44
6208;BME280;3137;51.550;7.060;2023-04-24T07:44:06;99656.50;;;8.76;85.56
6208;BME280;3137;51.550;7.060;2023-04-24T07:46:32;99651.53;;;8.82;86.13
6208;BME280;3137;51.550;7.060;2023-04-24T07:48:59;99670.66;;;8.87;86.04
6208;BME280;3137;51.550;7.060;2023-04-24T07:51:39;99654.78;;;8.86;84.01
6208;BME280;3137;51.550;7.060;2023-04-24T07:54:05;99661.72;;;8.77;83.94
6208;BME280;3137;51.550;7.060;2023-04-24T07:56:32;99665.50;;;8.63;82.51
6208;BME280;3137;51.550;7.060;2023-04-24T07:58:59;99668.28;;;8.73;83.18
6208;BME280;3137;51.550;7.060;2023-04-24T08:01:27;99658.81;;;8.80;84.66
6208;BME280;3137;51.550;7.060;2023-04-24T08:03:53;99662.09;;;8.84;84.15
6208;BME280;3137;51.550;7.060;2023-04-24T08:06:20;99676.03;;;8.76;84.68
6208;BME280;3137;51.550;7.060;2023-04-24T08:08:46;99672.69;;;8.51;82.85
6208;BME280;3137;51.550;7.060;2023-04-24T08:11:13;99672.31;;;8.45;84.40
6208;BME280;3137;51.550;7.060;2023-04-24T08:13:39;99681.41;;;8.31;84.30
6208;BME280;3137;51.550;7.060;2023-04-24T08:16:06;99688.44;;;8.32;85.87
6208;BME280;3137;51.550;7.060;2023-04-24T08:18:32;99677.75;;;8.32;85.51
6208;BME280;3137;51.550;7.060;2023-04-24T08:20:59;99684.19;;;8.29;86.33
6208;BME280;3137;51.550;7.060;2023-04-24T08:23:27;99690.34;;;8.19;85.90
6208;BME280;3137;51.550;7.060;2023-04-24T08:25:55;99697.88;;;8.14;86.65
6208;BME280;3137;51.550;7.060;2023-04-24T08:28:22;99701.16;;;8.17;86.96
6208;BME280;3137;51.550;7.060;2023-04-24T08:30:48;99705.16;;;8.12;86.71
6208;BME280;3137;51.550;7.060;2023-04-24T08:33:22;99699.56;;;8.03;88.01
6208;BME280;3137;51.550;7.060;2023-04-24T08:35:48;99710.00;;;8.06;88.34
6208;BME280;3137;51.550;7.060;2023-04-24T08:38:15;99704.88;;;7.92;88.72
6208;BME280;3137;51.550;7.060;2023-04-24T08:40:42;99715.69;;;7.91;89.72
6208;BME280;3137;51.550;7.060;2023-04-24T08:43:09;99726.56;;;7.87;90.22
6208;BME280;3137;51.550;7.060;2023-04-24T08:45:37;99728.00;;;7.69;90.51
6208;BME280;3137;51.550;7.060;2023-04-24T08:48:04;99729.63;;;7.59;91.70
6208;BME280;3137;51.550;7.060;2023-04-24T08:50:42;99733.66;;;7.64;92.21
6208;BME280;3137;51.550;7.060;2023-04-24T08:53:09;99729.06;;;7.66;92.22
6208;BME280;3137;51.550;7.060;2023-04-24T08:55:35;99734.50;;;7.65;92.29
6208;BME280;3137;51.550;7.060;2023-04-24T08:58:03;99732.69;;;7.65;93.14
6208;BME280;3137;51.550;7.060;2023-04-24T09:00:30;99739.25;;;7.73;93.06
6208;BME280;3137;51.550;7.060;2023-04-24T09:03:00;99735.63;;;7.74;93.58
6208;BME280;3137;51.550;7.060;2023-04-24T09:05:27;99747.41;;;7.82;93.49
6208;BME280;3137;51.550;7.060;2023-04-24T09:07:55;99749.94;;;7.84;93.62
6208;BME280;3137;51.550;7.060;2023-04-24T09:10:24;99756.38;;;7.81;93.18
6208;BME280;3137;51.550;7.060;2023-04-24T09:12:51;99765.59;;;7.88;93.00
6208;BME280;3137;51.550;7.060;2023-04-24T09:15:19;99777.25;;;7.99;93.50
6208;BME280;3137;51.550;7.060;2023-04-24T09:17:47;99775.56;;;8.09;93.92
6208;BME280;3137;51.550;7.060;2023-04-24T09:20:13;99789.53;;;8.13;94.17
6208;BME280;3137;51.550;7.060;2023-04-24T09:22:41;99793.53;;;8.18;93.90
6208;BME280;3137;51.550;7.060;2023-04-24T09:25:08;99799.50;;;8.22;93.73
6208;BME280;3137;51.550;7.060;2023-04-24T09:27:35;99801.06;;;8.24;94.37
6208;BME280;3137;51.550;7.060;2023-04-24T09:30:03;99810.75;;;8.25;93.66
6208;BME280;3137;51.550;7.060;2023-04-24T09:32:29;99812.69;;;8.23;94.19
6208;BME280;3137;51.550;7.060;2023-04-24T09:35:11;99804.94;;;8.20;93.89
6208;BME280;3137;51.550;7.060;2023-04-24T09:37:48;99828.19;;;8.18;94.00
6208;BME280;3137;51.550;7.060;2023-04-24T09:40:20;99831.97;;;8.16;93.21
6208;BME280;3137;51.550;7.060;2023-04-24T09:42:55;99850.22;;;8.09;91.19
6208;BME280;3137;51.550;7.060;2023-04-24T09:45:28;99849.63;;;8.05;91.35
6208;BME280;3137;51.550;7.060;2023-04-24T09:47:55;99874.06;;;7.99;91.69
6208;BME280;3137;51.550;7.060;2023-04-24T09:50:22;99867.41;;;7.94;91.23
6208;BME280;3137;51.550;7.060;2023-04-24T09:53:04;99891.63;;;7.91;91.33
6208;BME280;3137;51.550;7.060;2023-04-24T09:55:32;99899.84;;;7.87;91.85
6208;BME280;3137;51.550;7.060;2023-04-24T09:58:00;99906.59;;;7.80;92.38
6208;BME280;3137;51.550;7.060;2023-04-24T10:00:29;99914.72;;;7.79;92.56
6208;BME280;3137;51.550;7.060;2023-04-24T10:03:00;99935.13;;;7.67;92.80
6208;BME280;3137;51.550;7.060;2023-04-24T10:05:32;99941.75;;;7.61;92.40
6208;BME280;3137;51.550;7.060;2023-04-24T10:08:03;99943.75;;;7.58;91.75
6208;BME280;3137;51.550;7.060;2023-04-24T10:10:34;99958.69;;;7.60;91.65
6208;BME280;3137;51.550;7.060;2023-04-24T10:13:03;99950.59;;;7.62;92.66
6208;BME280;3137;51.550;7.060;2023-04-24T10:15:30;99965.38;;;7.66;92.21
6208;BME280;3137;51.550;7.060;2023-04-24T10:17:58;99963.69;;;7.65;92.40
6208;BME280;3137;51.550;7.060;2023-04-24T10:20:27;99968.59;;;7.71;92.62
6208;BME280;3137;51.550;7.060;2023-04-24T10:22:55;99982.09;;;7.68;92.25
6208;BME280;3137;51.550;7.060;2023-04-24T10:25:27;99984.56;;;7.71;92.73
6208;BME280;3137;51.550;7.060;2023-04-24T10:27:55;99986.69;;;7.79;93.30
6208;BME280;3137;51.550;7.060;2023-04-24T10:30:28;99993.84;;;7.78;93.38
6208;BME280;3137;51.550;7.060;2023-04-24T10:32:55;99997.97;;;7.82;93.50
6208;BME280;3137;51.550;7.060;2023-04-24T10:35:22;99993.78;;;7.91;93.99
6208;BME280;3137;51.550;7.060;2023-04-24T10:38:08;100009.25;;;7.86;93.66
6208;BME280;3137;51.550;7.060;2023-04-24T10:40:36;100008.06;;;7.90;93.21
6208;BME280;3137;51.550;7.060;2023-04-24T10:43:07;100016.59;;;7.95;93.16
6208;BME280;3137;51.550;7.060;2023-04-24T10:45:35;100017.44;;;7.96;93.45
6208;BME280;3137;51.550;7.060;2023-04-24T10:48:04;100030.13;;;7.92;93.63
6208;BME280;3137;51.550;7.060;2023-04-24T10:53:23;100036.34;;;7.80;93.33
6208;BME280;3137;51.550;7.060;2023-04-24T10:55:51;100031.03;;;7.80;93.37
6208;BME280;3137;51.550;7.060;2023-04-24T10:58:22;100036.25;;;7.81;93.76
6208;BME280;3137;51.550;7.060;2023-04-24T11:00:56;100046.06;;;7.81;93.41
6208;BME280;3137;51.550;7.060;2023-04-24T11:03:29;100052.84;;;7.85;93.84
6208;BME280;3137;51.550;7.060;2023-04-24T11:06:07;100058.09;;;7.86;93.18
6208;BME280;3137;51.550;7.060;2023-04-24T11:08:47;100058.75;;;7.77;92.51
6208;BME280;3137;51.550;7.060;2023-04-24T11:11:18;100061.09;;;7.82;92.88
6208;BME280;3137;51.550;7.060;2023-04-24T11:16:30;100078.25;;;7.91;93.39
6208;BME280;3137;51.550;7.060;2023-04-24T11:21:47;100071.91;;;8.04;92.26
6208;BME280;3137;51.550;7.060;2023-04-24T11:30:02;100085.47;;;8.51;90.02
6208;BME280;3137;51.550;7.060;2023-04-24T11:34:59;100088.75;;;8.79;90.03
6208;BME280;3137;51.550;7.060;2023-04-24T11:37:33;100095.28;;;8.75;88.84
6208;BME280;3137;51.550;7.060;2023-04-24T11:40:00;100094.31;;;8.76;88.80
6208;BME280;3137;51.550;7.060;2023-04-24T11:42:28;100103.72;;;8.81;89.58
6208;BME280;3137;51.550;7.060;2023-04-24T11:44:55;100103.63;;;8.94;90.20
6208;BME280;3137;51.550;7.060;2023-04-24T11:47:29;100103.88;;;9.02;91.11
6208;BME280;3137;51.550;7.060;2023-04-24T11:49:58;100106.19;;;8.96;87.67
6208;BME280;3137;51.550;7.060;2023-04-24T11:52:25;100114.41;;;8.92;85.80
6208;BME280;3137;51.550;7.060;2023-04-24T11:54:52;100113.06;;;8.87;84.59
6208;BME280;3137;51.550;7.060;2023-04-24T11:57:20;100125.56;;;8.86;83.13
6208;BME280;3137;51.550;7.060;2023-04-24T11:59:48;100141.09;;;8.81;80.50
6208;BME280;3137;51.550;7.060;2023-04-24T12:02:25;100137.09;;;8.87;80.93
6208;BME280;3137;51.550;7.060;2023-04-24T12:04:53;100133.50;;;8.99;80.80
6208;BME280;3137;51.550;7.060;2023-04-24T12:07:21;100137.66;;;9.03;81.02
6208;BME280;3137;51.550;7.060;2023-04-24T12:09:57;100145.94;;;9.11;81.43
6208;BME280;3137;51.550;7.060;2023-04-24T12:12:26;100147.38;;;9.04;79.73
6208;BME280;3137;51.550;7.060;2023-04-24T12:14:54;100144.94;;;9.01;79.18
6208;BME280;3137;51.550;7.060;2023-04-24T12:17:29;100156.38;;;9.14;80.40
6208;BME280;3137;51.550;7.060;2023-04-24T12:19:58;100159.78;;;9.05;79.09
6208;BME280;3137;51.550;7.060;2023-04-24T12:22:26;100155.31;;;8.93;77.78
6208;BME280;3137;51.550;7.060;2023-04-24T12:25:02;100172.16;;;8.82;77.14
6208;BME280;3137;51.550;7.060;2023-04-24T12:27:31;100163.88;;;8.74;78.04
6208;BME280;3137;51.550;7.060;2023-04-24T12:29:59;100172.31;;;8.68;77.66
6208;BME280;3137;51.550;7.060;2023-04-24T12:32:26;100169.97;;;8.63;78.63
6208;BME280;3137;51.550;7.060;2023-04-24T12:34:54;100176.81;;;8.67;79.79
6208;BME280;3137;51.550;7.060;2023-04-24T12:37:26;100178.31;;;8.59;77.73
6208;BME280;3137;51.550;7.060;2023-04-24T12:40:00;100186.22;;;8.60;78.90
6208;BME280;3137;51.550;7.060;2023-04-24T12:42:30;100196.88;;;8.60;78.76
6208;BME280;3137;51.550;7.060;2023-04-24T12:45:05;100200.06;;;8.65;79.18
6208;BME280;3137;51.550;7.060;2023-04-24T12:47:33;100194.84;;;8.64;77.30
6208;BME280;3137;51.550;7.060;2023-04-24T12:50:00;100192.16;;;8.77;78.74
6208;BME280;3137;51.550;7.060;2023-04-24T12:52:29;100195.75;;;8.88;77.08
6208;BME280;3137;51.550;7.060;2023-04-24T12:54:58;100207.31;;;9.00;76.75
6208;BME280;3137;51.550;7.060;2023-04-24T12:57:26;100204.31;;;9.05;76.05
6208;BME280;3137;51.550;7.060;2023-04-24T12:59:58;100207.94;;;9.04;75.52
6208;BME280;3137;51.550;7.060;2023-04-24T13:02:26;100211.28;;;8.94;74.42
6208;BME280;3137;51.550;7.060;2023-04-24T13:04:53;100204.38;;;8.92;75.65
6208;BME280;3137;51.550;7.060;2023-04-24T13:07:20;100209.81;;;8.90;74.98
6208;BME280;3137;51.550;7.060;2023-04-24T13:09:47;100215.78;;;8.94;76.37
6208;BME280;3137;51.550;7.060;2023-04-24T13:12:14;100217.38;;;8.97;75.66
6208;BME280;3137;51.550;7.060;2023-04-24T13:14:41;100220.63;;;8.89;74.05
6208;BME280;3137;51.550;7.060;2023-04-24T13:17:07;100222.56;;;8.87;74.35
6208;BME280;3137;51.550;7.060;2023-04-24T13:19:36;100221.69;;;8.86;74.28
6208;BME280;3137;51.550;7.060;2023-04-24T13:22:03;100236.97;;;8.84;74.90
6208;BME280;3137;51.550;7.060;2023-04-24T13:24:30;100230.47;;;8.88;75.72
6208;BME280;3137;51.550;7.060;2023-04-24T13:26:57;100231.72;;;8.96;74.85
6208;BME280;3137;51.550;7.060;2023-04-24T13:29:24;100232.44;;;8.98;73.80
6208;BME280;3137;51.550;7.060;2023-04-24T13:31:51;100240.44;;;8.98;74.00
6208;BME280;3137;51.550;7.060;2023-04-24T13:34:17;100236.13;;;8.84;73.58
6208;BME280;3137;51.550;7.060;2023-04-24T13:36:44;100239.97;;;8.80;73.25
6208;BME280;3137;51.550;7.060;2023-04-24T13:39:10;100232.81;;;8.80;73.94
6208;BME280;3137;51.550;7.060;2023-04-24T13:41:37;100239.34;;;8.76;72.47
6208;BME280;3137;51.550;7.060;2023-04-24T13:44:04;100244.47;;;8.79;73.85
6208;BME280;3137;51.550;7.060;2023-04-24T13:46:30;100241.91;;;8.78;74.72
6208;BME280;3137;51.550;7.060;2023-04-24T13:48:57;100247.75;;;8.83;74.44
6208;BME280;3137;51.550;7.060;2023-04-24T13:51:27;100232.75;;;8.93;73.70
6208;BME280;3137;51.550;7.060;2023-04-24T13:53:53;100242.91;;;9.01;74.88